sensor_id;sensor_type;location;lat;lon;timestamp;temperature;humidity
18753;DHT22;9505;50.882;5.350;2023-12-07T00:00:42;2.00;99.90
18753;DHT22;9505;50.882;5.350;2023-12-07T00:03:08;1.90;99.90
18753;DHT22;9505;50.882;5.350;2023-12-07T00:05:34;1.90;99.90
18753;DHT22;9505;50.882;5.350;2023-12-07T00:08:00;1.80;99.90
18753;DHT22;9505;50.882;5.350;2023-12-07T00:10:25;1.90;99.90
18753;DHT22;9505;50.882;5.350;2023-12-07T00:12:51;1.80;99.90
18753;DHT22;9505;50.882;5.350;2023-12-07T00:15:16;1.70;99.90
18753;DHT22;9505;50.882;5.350;2023-12-07T00:17:42;1.70;99.90
18753;DHT22;9505;50.882;5.350;2023-12-07T00:20:08;1.60;99.90
18753;DHT22;9505;50.882;5.350;2023-12-07T00:22:34;1.50;99.90
18753;DHT22;9505;50.882;5.350;2023-12-07T00:24:59;1.50;99.90
18753;DHT22;9505;50.882;5.350;2023-12-07T00:27:25;1.70;99.90
18753;DHT22;9505;50.882;5.350;2023-12-07T00:29:51;1.80;99.90
18753;DHT22;9505;50.882;5.350;2023-12-07T00:32:16;1.70;99.90
18753;DHT22;9505;50.882;5.350;2023-12-07T00:34:43;1.80;99.90
18753;DHT22;9505;50.882;5.350;2023-12-07T00:37:08;1.90;99.90
18753;DHT22;9505;50.882;5.350;2023-12-07T00:39:35;2.00;99.90
18753;DHT22;9505;50.882;5.350;2023-12-07T00:42:01;2.10;99.90
18753;DHT22;9505;50.882;5.350;2023-12-07T00:44:27;2.10;99.90
18753;DHT22;9505;50.882;5.350;2023-12-07T00:46:52;2.00;99.90
18753;DHT22;9505;50.882;5.350;2023-12-07T00:49:18;2.10;99.90
18753;DHT22;9505;50.882;5.350;2023-12-07T00:51:44;2.10;99.90
18753;DHT22;9505;50.882;5.350;2023-12-07T00:54:09;2.10;99.90
18753;DHT22;9505;50.882;5.350;2023-12-07T00:56:35;2.20;99.90
18753;DHT22;9505;50.882;5.350;2023-12-07T00:59:02;2.20;99.90
18753;DHT22;9505;50.882;5.350;2023-12-07T01:01:28;2.30;99.90
18753;DHT22;9505;50.882;5.350;2023-12-07T01:03:53;2.30;99.90
18753;DHT22;9505;50.882;5.350;2023-12-07T01:06:19;2.20;99.90
18753;DHT22;9505;50.882;5.350;2023-12-07T01:08:45;2.20;99.90
18753;DHT22;9505;50.882;5.350;2023-12-07T01:11:10;2.20;99.90
18753;DHT22;9505;50.882;5.350;2023-12-07T01:13:36;2.30;99.90
18753;DHT22;9505;50.882;5.350;2023-12-07T01:16:02;2.30;99.90
18753;DHT22;9505;50.882;5.350;2023-12-07T01:18:27;2.40;99.90
18753;DHT22;9505;50.882;5.350;2023-12-07T01:20:53;2.40;99.90
18753;DHT22;9505;50.882;5.350;2023-12-07T01:23:18;2.40;99.90
18753;DHT22;9505;50.882;5.350;2023-12-07T01:25:44;2.30;99.90
18753;DHT22;9505;50.882;5.350;2023-12-07T01:28:10;2.10;99.90
18753;DHT22;9505;50.882;5.350;2023-12-07T01:30:35;2.20;99.90
18753;DHT22;9505;50.882;5.350;2023-12-07T01:33:02;2.30;99.90
18753;DHT22;9505;50.882;5.350;2023-12-07T01:35:27;2.30;99.90
18753;DHT22;9505;50.882;5.350;2023-12-07T01:37:54;2.30;99.90
18753;DHT22;9505;50.882;5.350;2023-12-07T01:40:19;2.20;99.90
18753;DHT22;9505;50.882;5.350;2023-12-07T01:42:52;2.20;99.90
18753;DHT22;9505;50.882;5.350;2023-12-07T01:45:19;2.20;99.90
18753;DHT22;9505;50.882;5.350;2023-12-07T01:47:46;2.10;99.90
18753;DHT22;9505;50.882;5.350;2023-12-07T01:50:13;2.10;99.90
18753;DHT22;9505;50.882;5.350;2023-12-07T01:52:44;2.20;99.90
18753;DHT22;9505;50.882;5.350;2023-12-07T01:55:11;2.20;99.90
18753;DHT22;9505;50.882;5.350;2023-12-07T01:57:37;2.20;99.90
18753;DHT22;9505;50.882;5.350;2023-12-07T02:00:03;2.20;99.90
18753;DHT22;9505;50.882;5.350;2023-12-07T02:02:30;2.20;99.90
18753;DHT22;9505;50.882;5.350;2023-12-07T02:04:56;2.30;99.90
18753;DHT22;9505;50.882;5.350;2023-12-07T02:07:23;2.30;99.90
18753;DHT22;9505;50.882;5.350;2023-12-07T02:09:49;2.30;99.90
18753;DHT22;9505;50.882;5.350;2023-12-07T02:12:15;2.30;99.90
18753;DHT22;9505;50.882;5.350;2023-12-07T02:14:41;2.30;99.90
18753;DHT22;9505;50.882;5.350;2023-12-07T02:17:18;2.30;99.90
18753;DHT22;9505;50.882;5.350;2023-12-07T02:19:47;2.30;99.90
18753;DHT22;9505;50.882;5.350;2023-12-07T02:22:24;2.40;99.90
18753;DHT22;9505;50.882;5.350;2023-12-07T02:25:06;2.40;99.90
18753;DHT22;9505;50.882;5.350;2023-12-07T02:30:09;2.40;99.90
18753;DHT22;9505;50.882;5.350;2023-12-07T02:32:40;2.30;99.90
18753;DHT22;9505;50.882;5.350;2023-12-07T02:35:07;2.30;99.90
18753;DHT22;9505;50.882;5.350;2023-12-07T02:37:40;2.30;99.90
18753;DHT22;9505;50.882;5.350;2023-12-07T02:40:07;2.40;99.90
18753;DHT22;9505;50.882;5.350;2023-12-07T02:42:38;2.40;99.90
18753;DHT22;9505;50.882;5.350;2023-12-07T02:45:09;2.50;99.90
18753;DHT22;9505;50.882;5.350;2023-12-07T02:47:36;2.50;99.90
18753;DHT22;9505;50.882;5.350;2023-12-07T02:50:04;2.50;99.90
18753;DHT22;9505;50.882;5.350;2023-12-07T02:52:31;2.30;99.90
18753;DHT22;9505;50.882;5.350;2023-12-07T02:54:56;2.30;99.90
18753;DHT22;9505;50.882;5.350;2023-12-07T02:57:22;2.30;99.90
18753;DHT22;9505;50.882;5.350;2023-12-07T02:59:48;2.20;99.90
18753;DHT22;9505;50.882;5.350;2023-12-07T03:02:13;2.20;99.90
18753;DHT22;9505;50.882;5.350;2023-12-07T03:04:39;2.20;99.90
18753;DHT22;9505;50.882;5.350;2023-12-07T03:07:04;2.20;99.90
18753;DHT22;9505;50.882;5.350;2023-12-07T03:09:30;2.20;99.90
18753;DHT22;9505;50.882;5.350;2023-12-07T03:11:56;2.20;99.90
18753;DHT22;9505;50.882;5.350;2023-12-07T03:14:21;2.30;99.90
18753;DHT22;9505;50.882;5.350;2023-12-07T03:16:47;2.30;99.90
18753;DHT22;9505;50.882;5.350;2023-12-07T03:19:13;2.30;99.90
18753;DHT22;9505;50.882;5.350;2023-12-07T03:21:39;2.30;99.90
18753;DHT22;9505;50.882;5.350;2023-12-07T03:24:07;2.30;99.90
18753;DHT22;9505;50.882;5.350;2023-12-07T03:26:33;2.40;99.90
18753;DHT22;9505;50.882;5.350;2023-12-07T03:28:59;2.30;99.90
18753;DHT22;9505;50.882;5.350;2023-12-07T03:31:24;2.30;99.90
18753;DHT22;9505;50.882;5.350;2023-12-07T03:33:50;2.30;99.90
18753;DHT22;9505;50.882;5.350;2023-12-07T03:36:16;2.40;99.90
18753;DHT22;9505;50.882;5.350;2023-12-07T03:38:42;2.40;99.90
18753;DHT22;9505;50.882;5.350;2023-12-07T03:41:08;2.30;99.90
18753;DHT22;9505;50.882;5.350;2023-12-07T03:43:33;2.30;99.90
18753;DHT22;9505;50.882;5.350;2023-12-07T03:45:59;2.30;99.90
18753;DHT22;9505;50.882;5.350;2023-12-07T03:48:25;2.30;99.90
18753;DHT22;9505;50.882;5.350;2023-12-07T03:50:50;2.30;99.90
18753;DHT22;9505;50.882;5.350;2023-12-07T03:53:16;2.40;99.90
18753;DHT22;9505;50.882;5.350;2023-12-07T03:55:42;2.30;99.90
18753;DHT22;9505;50.882;5.350;2023-12-07T03:58:07;2.40;99.90
18753;DHT22;9505;50.882;5.350;2023-12-07T04:00:33;2.40;99.90
18753;DHT22;9505;50.882;5.350;2023-12-07T04:02:58;2.30;99.90
18753;DHT22;9505;50.882;5.350;2023-12-07T04:05:24;2.20;99.90
18753;DHT22;9505;50.882;5.350;2023-12-07T04:07:50;2.20;99.90
18753;DHT22;9505;50.882;5.350;2023-12-07T04:10:15;2.10;99.90
18753;DHT22;9505;50.882;5.350;2023-12-07T04:12:41;2.10;99.90
18753;DHT22;9505;50.882;5.350;2023-12-07T04:15:07;2.10;99.90
18753;DHT22;9505;50.882;5.350;2023-12-07T04:17:33;2.10;99.90
18753;DHT22;9505;50.882;5.350;2023-12-07T04:19:58;2.10;99.90
18753;DHT22;9505;50.882;5.350;2023-12-07T04:22:24;2.10;99.90
18753;DHT22;9505;50.882;5.350;2023-12-07T04:24:50;2.10;99.90
18753;DHT22;9505;50.882;5.350;2023-12-07T04:27:15;2.10;99.90
18753;DHT22;9505;50.882;5.350;2023-12-07T04:29:41;2.20;99.90
18753;DHT22;9505;50.882;5.350;2023-12-07T04:32:07;2.30;99.90
18753;DHT22;9505;50.882;5.350;2023-12-07T04:34:33;2.30;99.90
18753;DHT22;9505;50.882;5.350;2023-12-07T04:36:59;2.40;99.90
18753;DHT22;9505;50.882;5.350;2023-12-07T04:39:25;2.40;99.90
18753;DHT22;9505;50.882;5.350;2023-12-07T04:41:50;2.30;99.90
18753;DHT22;9505;50.882;5.350;2023-12-07T04:44:16;2.30;99.90
18753;DHT22;9505;50.882;5.350;2023-12-07T04:46:43;2.30;99.90
18753;DHT22;9505;50.882;5.350;2023-12-07T04:49:08;2.30;99.90
18753;DHT22;9505;50.882;5.350;2023-12-07T04:51:34;2.30;99.90
18753;DHT22;9505;50.882;5.350;2023-12-07T04:54:00;2.30;99.90
18753;DHT22;9505;50.882;5.350;2023-12-07T04:56:25;2.30;99.90
18753;DHT22;9505;50.882;5.350;2023-12-07T04:58:51;2.40;99.90
18753;DHT22;9505;50.882;5.350;2023-12-07T05:01:17;2.30;99.90
18753;DHT22;9505;50.882;5.350;2023-12-07T05:03:44;2.40;99.90
18753;DHT22;9505;50.882;5.350;2023-12-07T05:06:10;2.50;99.90
18753;DHT22;9505;50.882;5.350;2023-12-07T05:08:36;2.50;99.90
18753;DHT22;9505;50.882;5.350;2023-12-07T05:11:01;2.50;99.90
18753;DHT22;9505;50.882;5.350;2023-12-07T05:13:27;2.60;99.90
18753;DHT22;9505;50.882;5.350;2023-12-07T05:15:53;2.50;99.90
18753;DHT22;9505;50.882;5.350;2023-12-07T05:18:18;2.50;99.90
18753;DHT22;9505;50.882;5.350;2023-12-07T05:20:44;2.60;99.90
18753;DHT22;9505;50.882;5.350;2023-12-07T05:23:10;2.60;99.90
18753;DHT22;9505;50.882;5.350;2023-12-07T05:25:35;2.60;99.90
18753;DHT22;9505;50.882;5.350;2023-12-07T05:28:01;2.70;99.90
18753;DHT22;9505;50.882;5.350;2023-12-07T05:30:27;2.70;99.90
18753;DHT22;9505;50.882;5.350;2023-12-07T05:32:53;2.70;99.90
18753;DHT22;9505;50.882;5.350;2023-12-07T05:35:19;2.60;99.90
18753;DHT22;9505;50.882;5.350;2023-12-07T05:37:45;2.70;99.90
18753;DHT22;9505;50.882;5.350;2023-12-07T05:40:11;2.70;99.90
18753;DHT22;9505;50.882;5.350;2023-12-07T05:42:41;2.70;99.90
18753;DHT22;9505;50.882;5.350;2023-12-07T05:45:07;2.80;99.90
18753;DHT22;9505;50.882;5.350;2023-12-07T05:47:35;2.80;99.90
18753;DHT22;9505;50.882;5.350;2023-12-07T05:50:01;2.80;99.90
18753;DHT22;9505;50.882;5.350;2023-12-07T05:52:28;2.70;99.90
18753;DHT22;9505;50.882;5.350;2023-12-07T05:54:54;2.70;99.90
18753;DHT22;9505;50.882;5.350;2023-12-07T05:57:20;2.70;99.90
18753;DHT22;9505;50.882;5.350;2023-12-07T05:59:45;2.60;99.90
18753;DHT22;9505;50.882;5.350;2023-12-07T06:02:11;2.60;99.90
18753;DHT22;9505;50.882;5.350;2023-12-07T06:04:37;2.60;99.90
18753;DHT22;9505;50.882;5.350;2023-12-07T06:07:03;2.60;99.90
18753;DHT22;9505;50.882;5.350;2023-12-07T06:09:29;2.50;99.90
18753;DHT22;9505;50.882;5.350;2023-12-07T06:11:55;2.40;99.90
18753;DHT22;9505;50.882;5.350;2023-12-07T06:14:21;2.40;99.90
18753;DHT22;9505;50.882;5.350;2023-12-07T06:16:48;2.40;99.90
18753;DHT22;9505;50.882;5.350;2023-12-07T06:19:14;2.40;99.90
18753;DHT22;9505;50.882;5.350;2023-12-07T06:21:40;2.50;99.90
18753;DHT22;9505;50.882;5.350;2023-12-07T06:24:06;2.40;99.90
18753;DHT22;9505;50.882;5.350;2023-12-07T06:26:32;2.40;99.90
18753;DHT22;9505;50.882;5.350;2023-12-07T06:28:58;2.40;99.90
18753;DHT22;9505;50.882;5.350;2023-12-07T06:31:24;2.40;99.90
18753;DHT22;9505;50.882;5.350;2023-12-07T06:33:50;2.50;99.90
18753;DHT22;9505;50.882;5.350;2023-12-07T06:36:22;2.50;99.90
18753;DHT22;9505;50.882;5.350;2023-12-07T06:38:48;2.60;99.90
18753;DHT22;9505;50.882;5.350;2023-12-07T06:41:14;2.60;99.90
18753;DHT22;9505;50.882;5.350;2023-12-07T06:43:41;2.60;99.90
18753;DHT22;9505;50.882;5.350;2023-12-07T06:46:07;2.50;99.90
18753;DHT22;9505;50.882;5.350;2023-12-07T06:48:33;2.50;99.90
18753;DHT22;9505;50.882;5.350;2023-12-07T06:50:59;2.50;99.90
18753;DHT22;9505;50.882;5.350;2023-12-07T06:53:24;2.50;99.90
18753;DHT22;9505;50.882;5.350;2023-12-07T06:55:50;2.50;99.90
18753;DHT22;9505;50.882;5.350;2023-12-07T06:58:16;2.50;99.90
18753;DHT22;9505;50.882;5.350;2023-12-07T07:00:41;2.50;99.90
18753;DHT22;9505;50.882;5.350;2023-12-07T07:03:07;2.50;99.90
18753;DHT22;9505;50.882;5.350;2023-12-07T07:05:33;2.50;99.90
18753;DHT22;9505;50.882;5.350;2023-12-07T07:07:58;2.40;99.90
18753;DHT22;9505;50.882;5.350;2023-12-07T07:10:24;2.30;99.90
18753;DHT22;9505;50.882;5.350;2023-12-07T07:12:50;2.20;99.90
18753;DHT22;9505;50.882;5.350;2023-12-07T07:15:15;2.20;99.90
18753;DHT22;9505;50.882;5.350;2023-12-07T07:17:41;2.10;99.90
18753;DHT22;9505;50.882;5.350;2023-12-07T07:20:07;2.00;99.90
18753;DHT22;9505;50.882;5.350;2023-12-07T07:22:33;1.90;99.90
18753;DHT22;9505;50.882;5.350;2023-12-07T07:25:00;1.90;99.90
18753;DHT22;9505;50.882;5.350;2023-12-07T07:27:25;1.80;99.90
18753;DHT22;9505;50.882;5.350;2023-12-07T07:29:51;1.80;99.90
18753;DHT22;9505;50.882;5.350;2023-12-07T07:32:18;1.70;99.90
18753;DHT22;9505;50.882;5.350;2023-12-07T07:34:44;1.60;99.90
18753;DHT22;9505;50.882;5.350;2023-12-07T07:37:09;1.60;99.90
18753;DHT22;9505;50.882;5.350;2023-12-07T07:39:35;1.50;99.90
18753;DHT22;9505;50.882;5.350;2023-12-07T07:42:01;1.60;99.90
18753;DHT22;9505;50.882;5.350;2023-12-07T07:44:26;1.50;99.90
18753;DHT22;9505;50.882;5.350;2023-12-07T07:46:52;1.50;99.90
18753;DHT22;9505;50.882;5.350;2023-12-07T07:49:17;1.60;99.90
18753;DHT22;9505;50.882;5.350;2023-12-07T07:51:43;1.50;99.90
18753;DHT22;9505;50.882;5.350;2023-12-07T07:54:09;1.50;99.90
18753;DHT22;9505;50.882;5.350;2023-12-07T07:56:34;1.50;99.90
18753;DHT22;9505;50.882;5.350;2023-12-07T07:59:01;1.50;99.90
18753;DHT22;9505;50.882;5.350;2023-12-07T08:01:26;1.50;99.90
18753;DHT22;9505;50.882;5.350;2023-12-07T08:03:52;1.50;99.90
18753;DHT22;9505;50.882;5.350;2023-12-07T08:06:18;1.50;99.90
18753;DHT22;9505;50.882;5.350;2023-12-07T08:08:44;1.50;99.90
18753;DHT22;9505;50.882;5.350;2023-12-07T08:11:09;1.50;99.90
18753;DHT22;9505;50.882;5.350;2023-12-07T08:13:35;1.50;99.90
18753;DHT22;9505;50.882;5.350;2023-12-07T08:16:01;1.50;99.90
18753;DHT22;9505;50.882;5.350;2023-12-07T08:18:27;1.50;99.90
18753;DHT22;9505;50.882;5.350;2023-12-07T08:20:53;1.50;99.90
18753;DHT22;9505;50.882;5.350;2023-12-07T08:23:18;1.50;99.90
18753;DHT22;9505;50.882;5.350;2023-12-07T08:25:44;1.60;99.90
18753;DHT22;9505;50.882;5.350;2023-12-07T08:28:10;1.60;99.90
18753;DHT22;9505;50.882;5.350;2023-12-07T08:30:36;1.80;99.90
18753;DHT22;9505;50.882;5.350;2023-12-07T08:33:02;1.90;99.90
18753;DHT22;9505;50.882;5.350;2023-12-07T08:35:27;2.20;99.90
18753;DHT22;9505;50.882;5.350;2023-12-07T08:37:53;2.60;99.90
18753;DHT22;9505;50.882;5.350;2023-12-07T08:40:19;2.90;99.90
18753;DHT22;9505;50.882;5.350;2023-12-07T08:42:46;3.10;99.90
18753;DHT22;9505;50.882;5.350;2023-12-07T08:45:12;3.20;99.90
18753;DHT22;9505;50.882;5.350;2023-12-07T08:47:39;3.50;99.90
18753;DHT22;9505;50.882;5.350;2023-12-07T08:50:05;3.90;99.90
18753;DHT22;9505;50.882;5.350;2023-12-07T08:52:33;4.30;99.90
18753;DHT22;9505;50.882;5.350;2023-12-07T08:54:58;4.80;99.90
18753;DHT22;9505;50.882;5.350;2023-12-07T08:57:24;5.40;99.90
18753;DHT22;9505;50.882;5.350;2023-12-07T08:59:50;6.10;99.90
18753;DHT22;9505;50.882;5.350;2023-12-07T09:02:15;6.70;99.90
18753;DHT22;9505;50.882;5.350;2023-12-07T09:04:41;7.20;99.90
18753;DHT22;9505;50.882;5.350;2023-12-07T09:07:07;7.80;99.90
18753;DHT22;9505;50.882;5.350;2023-12-07T09:09:32;7.90;99.90
18753;DHT22;9505;50.882;5.350;2023-12-07T09:11:58;7.60;99.90
18753;DHT22;9505;50.882;5.350;2023-12-07T09:14:23;7.20;99.90
18753;DHT22;9505;50.882;5.350;2023-12-07T09:16:49;7.10;99.90
18753;DHT22;9505;50.882;5.350;2023-12-07T09:19:15;7.10;99.90
18753;DHT22;9505;50.882;5.350;2023-12-07T09:21:41;7.10;99.90
18753;DHT22;9505;50.882;5.350;2023-12-07T09:24:07;7.00;99.90
18753;DHT22;9505;50.882;5.350;2023-12-07T09:26:33;7.20;99.90
18753;DHT22;9505;50.882;5.350;2023-12-07T09:28:58;7.40;99.90
18753;DHT22;9505;50.882;5.350;2023-12-07T09:31:24;7.40;99.90
18753;DHT22;9505;50.882;5.350;2023-12-07T09:33:50;7.60;99.90
18753;DHT22;9505;50.882;5.350;2023-12-07T09:36:19;8.20;99.90
18753;DHT22;9505;50.882;5.350;2023-12-07T09:38:46;8.30;99.90
18753;DHT22;9505;50.882;5.350;2023-12-07T09:41:12;8.60;99.90
18753;DHT22;9505;50.882;5.350;2023-12-07T09:43:38;9.10;99.90
18753;DHT22;9505;50.882;5.350;2023-12-07T09:46:04;9.00;99.90
18753;DHT22;9505;50.882;5.350;2023-12-07T09:48:31;9.00;99.90
18753;DHT22;9505;50.882;5.350;2023-12-07T09:50:57;9.00;99.90
18753;DHT22;9505;50.882;5.350;2023-12-07T09:53:23;9.30;99.90
18753;DHT22;9505;50.882;5.350;2023-12-07T09:55:49;9.60;99.90
18753;DHT22;9505;50.882;5.350;2023-12-07T09:58:15;9.70;99.90
18753;DHT22;9505;50.882;5.350;2023-12-07T10:00:40;9.60;99.90
18753;DHT22;9505;50.882;5.350;2023-12-07T10:03:07;9.30;99.90
18753;DHT22;9505;50.882;5.350;2023-12-07T10:05:33;9.20;99.90
18753;DHT22;9505;50.882;5.350;2023-12-07T10:07:59;9.30;99.90
18753;DHT22;9505;50.882;5.350;2023-12-07T10:10:25;9.00;99.90
18753;DHT22;9505;50.882;5.350;2023-12-07T10:12:53;8.40;99.90
18753;DHT22;9505;50.882;5.350;2023-12-07T10:15:20;7.80;99.90
18753;DHT22;9505;50.882;5.350;2023-12-07T10:17:54;7.30;99.90
18753;DHT22;9505;50.882;5.350;2023-12-07T10:20:23;6.80;99.90
18753;DHT22;9505;50.882;5.350;2023-12-07T10:25:32;6.40;99.90
18753;DHT22;9505;50.882;5.350;2023-12-07T10:27:57;6.30;99.90
18753;DHT22;9505;50.882;5.350;2023-12-07T10:30:23;6.30;99.90
18753;DHT22;9505;50.882;5.350;2023-12-07T10:32:52;6.50;99.90
18753;DHT22;9505;50.882;5.350;2023-12-07T10:35:19;6.60;99.90
18753;DHT22;9505;50.882;5.350;2023-12-07T10:37:46;6.60;99.90
18753;DHT22;9505;50.882;5.350;2023-12-07T10:40:12;6.50;99.90
18753;DHT22;9505;50.882;5.350;2023-12-07T10:42:41;6.60;99.90
18753;DHT22;9505;50.882;5.350;2023-12-07T10:45:07;6.70;99.90
18753;DHT22;9505;50.882;5.350;2023-12-07T10:47:37;7.00;99.90
18753;DHT22;9505;50.882;5.350;2023-12-07T10:50:07;7.30;99.90
18753;DHT22;9505;50.882;5.350;2023-12-07T10:52:39;7.50;99.90
18753;DHT22;9505;50.882;5.350;2023-12-07T10:55:20;7.50;99.90
18753;DHT22;9505;50.882;5.350;2023-12-07T10:57:49;7.80;99.90
18753;DHT22;9505;50.882;5.350;2023-12-07T11:00:17;7.30;99.90
18753;DHT22;9505;50.882;5.350;2023-12-07T11:02:45;7.00;99.90
18753;DHT22;9505;50.882;5.350;2023-12-07T11:05:11;7.00;99.90
18753;DHT22;9505;50.882;5.350;2023-12-07T11:08:54;7.30;99.90
18753;DHT22;9505;50.882;5.350;2023-12-07T11:11:24;7.30;99.90
18753;DHT22;9505;50.882;5.350;2023-12-07T11:13:59;7.30;99.90
18753;DHT22;9505;50.882;5.350;2023-12-07T11:16:36;7.40;99.90
18753;DHT22;9505;50.882;5.350;2023-12-07T11:19:03;7.90;99.90
18753;DHT22;9505;50.882;5.350;2023-12-07T11:21:30;8.40;99.90
18753;DHT22;9505;50.882;5.350;2023-12-07T11:23:59;8.10;99.90
18753;DHT22;9505;50.882;5.350;2023-12-07T11:26:25;7.40;99.90
18753;DHT22;9505;50.882;5.350;2023-12-07T11:28:52;7.40;99.90
18753;DHT22;9505;50.882;5.350;2023-12-07T11:31:20;7.40;99.90
18753;DHT22;9505;50.882;5.350;2023-12-07T11:33:46;7.40;99.90
18753;DHT22;9505;50.882;5.350;2023-12-07T11:36:13;7.10;99.90
18753;DHT22;9505;50.882;5.350;2023-12-07T11:41:43;6.90;99.90
18753;DHT22;9505;50.882;5.350;2023-12-07T11:44:10;6.60;99.90
18753;DHT22;9505;50.882;5.350;2023-12-07T11:46:37;6.40;99.90
18753;DHT22;9505;50.882;5.350;2023-12-07T11:49:03;6.20;99.90
18753;DHT22;9505;50.882;5.350;2023-12-07T11:51:31;6.10;99.90
18753;DHT22;9505;50.882;5.350;2023-12-07T11:53:57;6.00;99.90
18753;DHT22;9505;50.882;5.350;2023-12-07T11:56:22;5.90;99.90
18753;DHT22;9505;50.882;5.350;2023-12-07T11:58:48;6.00;99.90
18753;DHT22;9505;50.882;5.350;2023-12-07T12:01:16;6.10;99.90
18753;DHT22;9505;50.882;5.350;2023-12-07T12:03:43;6.20;99.90
18753;DHT22;9505;50.882;5.350;2023-12-07T12:06:08;6.30;99.90
18753;DHT22;9505;50.882;5.350;2023-12-07T12:08:36;6.30;99.90
18753;DHT22;9505;50.882;5.350;2023-12-07T12:11:02;6.30;99.90
18753;DHT22;9505;50.882;5.350;2023-12-07T12:13:29;6.30;99.90
18753;DHT22;9505;50.882;5.350;2023-12-07T12:15:56;6.30;99.90
18753;DHT22;9505;50.882;5.350;2023-12-07T12:18:21;6.50;99.90
18753;DHT22;9505;50.882;5.350;2023-12-07T12:20:50;6.70;99.90
18753;DHT22;9505;50.882;5.350;2023-12-07T12:23:15;7.00;99.90
18753;DHT22;9505;50.882;5.350;2023-12-07T12:25:41;7.30;99.90
18753;DHT22;9505;50.882;5.350;2023-12-07T12:28:07;7.50;99.90
18753;DHT22;9505;50.882;5.350;2023-12-07T12:30:34;7.40;99.90
18753;DHT22;9505;50.882;5.350;2023-12-07T12:32:59;7.40;99.90
18753;DHT22;9505;50.882;5.350;2023-12-07T12:35:25;7.50;99.90
18753;DHT22;9505;50.882;5.350;2023-12-07T12:37:51;7.50;99.90
18753;DHT22;9505;50.882;5.350;2023-12-07T12:40:18;7.60;99.90
18753;DHT22;9505;50.882;5.350;2023-12-07T12:42:46;7.70;99.90
18753;DHT22;9505;50.882;5.350;2023-12-07T12:45:15;7.50;99.90
18753;DHT22;9505;50.882;5.350;2023-12-07T12:47:44;7.30;99.90
18753;DHT22;9505;50.882;5.350;2023-12-07T12:52:54;6.80;99.90
18753;DHT22;9505;50.882;5.350;2023-12-07T12:55:20;6.40;99.90
18753;DHT22;9505;50.882;5.350;2023-12-07T12:57:46;6.30;99.90
18753;DHT22;9505;50.882;5.350;2023-12-07T13:00:12;6.30;99.90
18753;DHT22;9505;50.882;5.350;2023-12-07T13:02:38;6.40;99.90
18753;DHT22;9505;50.882;5.350;2023-12-07T13:05:04;6.40;99.90
18753;DHT22;9505;50.882;5.350;2023-12-07T13:07:30;6.10;99.90
18753;DHT22;9505;50.882;5.350;2023-12-07T13:09:55;6.10;99.90
18753;DHT22;9505;50.882;5.350;2023-12-07T13:12:21;6.10;99.90
18753;DHT22;9505;50.882;5.350;2023-12-07T13:14:47;6.00;99.90
18753;DHT22;9505;50.882;5.350;2023-12-07T13:17:13;6.00;99.90
18753;DHT22;9505;50.882;5.350;2023-12-07T13:19:39;6.00;99.90
18753;DHT22;9505;50.882;5.350;2023-12-07T13:22:04;6.00;99.90
18753;DHT22;9505;50.882;5.350;2023-12-07T13:24:30;6.10;99.90
18753;DHT22;9505;50.882;5.350;2023-12-07T13:26:57;6.10;99.90
18753;DHT22;9505;50.882;5.350;2023-12-07T13:29:23;6.10;99.90
18753;DHT22;9505;50.882;5.350;2023-12-07T13:31:49;6.00;99.90
18753;DHT22;9505;50.882;5.350;2023-12-07T13:34:15;6.10;99.90
18753;DHT22;9505;50.882;5.350;2023-12-07T13:36:41;6.00;99.90
18753;DHT22;9505;50.882;5.350;2023-12-07T13:39:06;6.00;99.90
18753;DHT22;9505;50.882;5.350;2023-12-07T13:41:34;6.00;99.90
18753;DHT22;9505;50.882;5.350;2023-12-07T13:44:00;6.10;99.90
18753;DHT22;9505;50.882;5.350;2023-12-07T13:46:27;6.00;99.90
18753;DHT22;9505;50.882;5.350;2023-12-07T13:48:52;6.10;99.90
18753;DHT22;9505;50.882;5.350;2023-12-07T13:51:18;6.10;99.90
18753;DHT22;9505;50.882;5.350;2023-12-07T13:53:44;6.10;99.90
18753;DHT22;9505;50.882;5.350;2023-12-07T13:56:09;6.10;99.90
18753;DHT22;9505;50.882;5.350;2023-12-07T13:58:35;6.10;99.90
18753;DHT22;9505;50.882;5.350;2023-12-07T14:01:01;6.10;99.90
18753;DHT22;9505;50.882;5.350;2023-12-07T14:03:27;6.00;99.90
18753;DHT22;9505;50.882;5.350;2023-12-07T14:05:53;6.00;99.90
18753;DHT22;9505;50.882;5.350;2023-12-07T14:08:18;6.10;99.90
18753;DHT22;9505;50.882;5.350;2023-12-07T14:10:45;6.20;99.90
18753;DHT22;9505;50.882;5.350;2023-12-07T14:13:11;6.00;99.90
18753;DHT22;9505;50.882;5.350;2023-12-07T14:15:36;6.00;99.90
18753;DHT22;9505;50.882;5.350;2023-12-07T14:18:02;6.00;99.90
18753;DHT22;9505;50.882;5.350;2023-12-07T14:20:28;5.90;99.90
18753;DHT22;9505;50.882;5.350;2023-12-07T14:22:57;6.00;99.90
18753;DHT22;9505;50.882;5.350;2023-12-07T14:25:23;5.90;99.90
18753;DHT22;9505;50.882;5.350;2023-12-07T14:27:49;5.90;99.90
18753;DHT22;9505;50.882;5.350;2023-12-07T14:30:15;5.90;99.90
18753;DHT22;9505;50.882;5.350;2023-12-07T14:32:42;5.90;99.90
18753;DHT22;9505;50.882;5.350;2023-12-07T14:35:13;6.00;99.90
18753;DHT22;9505;50.882;5.350;2023-12-07T14:37:39;5.90;99.90
18753;DHT22;9505;50.882;5.350;2023-12-07T14:40:07;5.90;99.90
18753;DHT22;9505;50.882;5.350;2023-12-07T14:42:34;5.80;99.90
18753;DHT22;9505;50.882;5.350;2023-12-07T14:44:59;5.70;99.90
18753;DHT22;9505;50.882;5.350;2023-12-07T14:47:25;5.60;99.90
18753;DHT22;9505;50.882;5.350;2023-12-07T14:49:51;5.50;99.90
18753;DHT22;9505;50.882;5.350;2023-12-07T14:52:16;5.50;99.90
18753;DHT22;9505;50.882;5.350;2023-12-07T14:54:42;5.40;99.90
18753;DHT22;9505;50.882;5.350;2023-12-07T14:57:08;5.30;99.90
18753;DHT22;9505;50.882;5.350;2023-12-07T14:59:35;5.30;99.90
18753;DHT22;9505;50.882;5.350;2023-12-07T15:02:01;5.20;99.90
18753;DHT22;9505;50.882;5.350;2023-12-07T15:04:27;5.10;99.90
18753;DHT22;9505;50.882;5.350;2023-12-07T15:06:52;5.00;99.90
18753;DHT22;9505;50.882;5.350;2023-12-07T15:09:20;5.00;99.90
18753;DHT22;9505;50.882;5.350;2023-12-07T15:11:46;4.90;99.90
18753;DHT22;9505;50.882;5.350;2023-12-07T15:14:12;4.80;99.90
18753;DHT22;9505;50.882;5.350;2023-12-07T15:16:38;4.80;99.90
18753;DHT22;9505;50.882;5.350;2023-12-07T15:19:04;4.70;99.90
18753;DHT22;9505;50.882;5.350;2023-12-07T15:21:30;4.60;99.90
18753;DHT22;9505;50.882;5.350;2023-12-07T15:23:56;4.60;99.90
18753;DHT22;9505;50.882;5.350;2023-12-07T15:26:21;4.50;99.90
18753;DHT22;9505;50.882;5.350;2023-12-07T15:28:47;4.40;99.90
18753;DHT22;9505;50.882;5.350;2023-12-07T15:31:13;4.30;99.90
18753;DHT22;9505;50.882;5.350;2023-12-07T15:33:38;4.20;99.90
18753;DHT22;9505;50.882;5.350;2023-12-07T15:36:04;4.10;99.90
18753;DHT22;9505;50.882;5.350;2023-12-07T15:38:30;4.00;99.90
18753;DHT22;9505;50.882;5.350;2023-12-07T15:40:57;4.00;99.90
18753;DHT22;9505;50.882;5.350;2023-12-07T15:43:27;3.90;99.90
18753;DHT22;9505;50.882;5.350;2023-12-07T15:45:52;3.80;99.90
18753;DHT22;9505;50.882;5.350;2023-12-07T15:48:18;3.80;99.90
18753;DHT22;9505;50.882;5.350;2023-12-07T15:50:48;3.70;99.90
18753;DHT22;9505;50.882;5.350;2023-12-07T15:53:14;3.70;99.90
18753;DHT22;9505;50.882;5.350;2023-12-07T15:55:40;3.70;99.90
18753;DHT22;9505;50.882;5.350;2023-12-07T15:58:06;3.60;99.90
18753;DHT22;9505;50.882;5.350;2023-12-07T16:00:31;3.60;99.90
18753;DHT22;9505;50.882;5.350;2023-12-07T16:02:57;3.70;99.90
18753;DHT22;9505;50.882;5.350;2023-12-07T16:05:23;3.70;99.90
18753;DHT22;9505;50.882;5.350;2023-12-07T16:07:48;3.70;99.90